createdAt,value
2023-02-18T00:02:13.588Z,102313.87
2023-02-18T00:04:42.826Z,102306.65
2023-02-18T00:07:12.720Z,102313.62
2023-02-18T00:09:41.946Z,102306.09
2023-02-18T00:12:11.177Z,102311.00
2023-02-18T00:14:40.619Z,102307.23
2023-02-18T00:17:09.948Z,102301.60
2023-02-18T00:19:39.194Z,102294.84
2023-02-18T00:22:08.645Z,102298.69
2023-02-18T00:24:38.052Z,102289.39
2023-02-18T00:27:07.542Z,102289.30
2023-02-18T00:29:36.855Z,102292.48
2023-02-18T00:32:07.548Z,102284.67
2023-02-18T00:34:37.804Z,102270.41
2023-02-18T00:37:07.854Z,102272.28
2023-02-18T00:39:37.658Z,102276.44
2023-02-18T00:42:06.996Z,102276.13
2023-02-18T00:44:36.383Z,102263.73
2023-02-18T00:47:05.802Z,102261.56
2023-02-18T00:49:35.595Z,102264.20
2023-02-18T00:52:06.069Z,102261.47
2023-02-18T00:54:35.276Z,102258.16
2023-02-18T00:57:04.608Z,102259.12
2023-02-18T00:59:34.068Z,102251.68
2023-02-18T01:02:03.324Z,102249.91
2023-02-18T01:04:32.587Z,102242.66
2023-02-18T01:07:02.174Z,102235.70
2023-02-18T01:09:31.419Z,102239.56
2023-02-18T01:12:01.315Z,102239.01
2023-02-18T01:14:30.530Z,102239.01
2023-02-18T01:16:59.890Z,102231.11
2023-02-18T01:19:29.139Z,102235.98
2023-02-18T01:21:58.391Z,102226.30
2023-02-18T01:24:27.675Z,102231.57
2023-02-18T01:26:56.931Z,102223.95
2023-02-18T01:29:26.593Z,102232.05
2023-02-18T01:31:57.247Z,102234.50
2023-02-18T01:34:26.694Z,102222.65
2023-02-18T01:36:57.281Z,102217.48
2023-02-18T01:39:26.594Z,102224.92
2023-02-18T01:41:56.076Z,102225.38
2023-02-18T01:44:27.786Z,102211.92
2023-02-18T01:46:57.647Z,102215.23
2023-02-18T01:49:33.280Z,102212.00
2023-02-18T01:52:05.786Z,102208.55
2023-02-18T01:54:40.607Z,102211.91
2023-02-18T01:57:12.711Z,102208.36
2023-02-18T01:59:59.878Z,102216.53
2023-02-18T02:02:31.741Z,102214.66
2023-02-18T02:05:00.954Z,102201.03
2023-02-18T02:07:30.972Z,102194.44
2023-02-18T02:10:01.381Z,102197.70
2023-02-18T02:12:53.483Z,102194.80
2023-02-18T02:15:38.110Z,102194.80
2023-02-18T02:18:31.640Z,102189.73
2023-02-18T02:21:05.636Z,102185.78
2023-02-18T02:23:49.979Z,102173.37
2023-02-18T02:26:46.863Z,102173.56
2023-02-18T02:29:27.805Z,102169.23
2023-02-18T02:32:23.789Z,102163.61
2023-02-18T02:34:59.164Z,102161.63
2023-02-18T02:37:34.434Z,102160.41
2023-02-18T02:40:22.127Z,102155.89
2023-02-18T02:43:07.135Z,102148.48
2023-02-18T02:45:57.812Z,102148.19
2023-02-18T02:48:36.815Z,102145.55
2023-02-18T02:51:11.821Z,102136.53
2023-02-18T02:53:43.107Z,102130.90
2023-02-18T02:56:20.806Z,102122.91
2023-02-18T02:59:01.091Z,102114.45
2023-02-18T03:01:44.054Z,102118.30
2023-02-18T03:04:25.711Z,102109.77
2023-02-18T03:07:02.612Z,102093.30
2023-02-18T03:09:57.808Z,102083.27
2023-02-18T03:12:39.207Z,102081.84
2023-02-18T03:15:18.563Z,102075.83
2023-02-18T03:17:50.986Z,102073.75
2023-02-18T03:20:40.683Z,102069.80
2023-02-18T03:23:12.251Z,102065.86
2023-02-18T03:25:42.050Z,102067.47
2023-02-18T03:28:14.439Z,102062.94
2023-02-18T03:30:44.852Z,102060.50
2023-02-18T03:33:16.708Z,102061.72
2023-02-18T03:35:46.947Z,102057.67
2023-02-18T03:38:23.204Z,102059.94
2023-02-18T03:40:52.692Z,102057.58
2023-02-18T03:43:22.115Z,102050.53
2023-02-18T03:45:51.522Z,102047.80
2023-02-18T03:48:21.108Z,102051.39
2023-02-18T03:50:50.330Z,102041.69
2023-02-18T03:53:19.767Z,102028.62
2023-02-18T03:55:49.087Z,102039.16
2023-02-18T03:58:18.616Z,102039.16
2023-02-18T04:00:47.874Z,102035.59
2023-02-18T04:03:17.333Z,102029.22
2023-02-18T04:05:48.437Z,102031.26
2023-02-18T04:08:17.906Z,102024.15
2023-02-18T04:10:47.302Z,102020.20
2023-02-18T04:13:17.798Z,102020.93
2023-02-18T04:15:47.235Z,102017.57
2023-02-18T04:18:16.570Z,102004.58
2023-02-18T04:20:46.528Z,101996.69
2023-02-18T04:23:15.994Z,102000.63
2023-02-18T04:25:46.187Z,102000.47
2023-02-18T04:28:16.923Z,102005.99
2023-02-18T04:30:47.669Z,102005.83
2023-02-18T04:33:16.913Z,102012.50
2023-02-18T04:35:46.860Z,102013.45
2023-02-18T04:38:16.085Z,102004.34
2023-02-18T04:40:45.695Z,102006.87
2023-02-18T04:43:14.910Z,102002.27
2023-02-18T04:45:44.680Z,101997.66
2023-02-18T04:48:14.273Z,101996.84
2023-02-18T04:50:45.619Z,101996.73
2023-02-18T04:53:15.007Z,101990.72
2023-02-18T04:55:44.447Z,101987.83
2023-02-18T04:58:13.705Z,101986.12
2023-02-18T05:00:43.206Z,101980.00
2023-02-18T05:03:12.793Z,101988.19
2023-02-18T05:05:42.101Z,101983.58
2023-02-18T05:08:11.838Z,101985.09
2023-02-18T05:10:41.141Z,101977.76
2023-02-18T05:13:10.445Z,101976.84
2023-02-18T05:15:39.724Z,101969.14
2023-02-18T05:18:09.307Z,101971.77
2023-02-18T05:20:38.516Z,101971.97
2023-02-18T05:23:07.776Z,101980.41
2023-02-18T05:25:37.009Z,101971.77
2023-02-18T05:28:06.616Z,101975.80
2023-02-18T05:30:35.892Z,101977.98
2023-02-18T05:33:05.211Z,101974.48
2023-02-18T05:35:34.459Z,101973.77
2023-02-18T05:38:04.171Z,101961.44
2023-02-18T05:40:33.584Z,101963.15
2023-02-18T05:43:02.957Z,101950.66
2023-02-18T05:45:32.341Z,101944.08
2023-02-18T05:48:01.539Z,101938.16
2023-02-18T05:50:30.871Z,101938.91
2023-02-18T05:53:00.144Z,101938.06
2023-02-18T05:55:29.406Z,101931.13
2023-02-18T05:57:58.630Z,101932.90
2023-02-18T06:00:29.849Z,101934.58
2023-02-18T06:03:00.326Z,101928.50
2023-02-18T06:05:29.917Z,101913.84
2023-02-18T06:07:59.450Z,101938.72
2023-02-18T06:10:28.993Z,101929.91
2023-02-18T06:12:58.476Z,101927.73
2023-02-18T06:15:27.738Z,101924.84
2023-02-18T06:17:57.321Z,101922.94
2023-02-18T06:20:26.639Z,101934.77
2023-02-18T06:22:55.872Z,101931.87
2023-02-18T06:25:25.184Z,101930.10
2023-02-18T06:27:54.641Z,101934.60
2023-02-18T06:30:24.724Z,101930.85
2023-02-18T06:32:54.061Z,101925.33
2023-02-18T06:35:23.469Z,101920.72
2023-02-18T06:37:52.857Z,101925.58
2023-02-18T06:40:22.112Z,101931.30
2023-02-18T06:42:51.522Z,101930.17
2023-02-18T06:45:21.447Z,101932.16
2023-02-18T06:47:51.028Z,101922.66
2023-02-18T06:50:20.713Z,101927.16
2023-02-18T06:52:49.984Z,101927.64
2023-02-18T06:55:19.584Z,101925.57
2023-02-18T06:57:48.899Z,101919.65
2023-02-18T07:00:18.783Z,101925.77
2023-02-18T07:02:48.307Z,101918.43
2023-02-18T07:05:18.035Z,101920.69
2023-02-18T07:07:47.391Z,101915.27
2023-02-18T07:10:17.068Z,101924.56
2023-02-18T07:12:46.308Z,101924.06
2023-02-18T07:15:15.877Z,101941.91
2023-02-18T07:17:45.107Z,101934.97
2023-02-18T07:20:14.400Z,101928.95
2023-02-18T07:22:43.628Z,101928.02
2023-02-18T07:25:13.135Z,101938.83
2023-02-18T07:27:42.642Z,101942.47
2023-02-18T07:30:12.934Z,101942.00
2023-02-18T07:32:42.849Z,101946.22
2023-02-18T07:35:14.863Z,101943.22
2023-02-18T07:37:48.767Z,101935.98
2023-02-18T07:40:20.407Z,101932.90
2023-02-18T07:42:50.042Z,101936.29
2023-02-18T07:45:21.156Z,101937.02
2023-02-18T07:47:50.406Z,101936.37
2023-02-18T07:50:19.943Z,101942.18
2023-02-18T07:52:49.212Z,101944.52
2023-02-18T07:55:18.527Z,101941.89
2023-02-18T07:58:01.090Z,101934.77
2023-02-18T08:00:30.584Z,101940.20
2023-02-18T08:03:00.000Z,101939.84
2023-02-18T08:05:29.292Z,101937.57
2023-02-18T08:07:59.216Z,101933.62
2023-02-18T08:10:28.534Z,101943.06
2023-02-18T08:12:58.260Z,101939.88
2023-02-18T08:15:27.548Z,101932.36
2023-02-18T08:17:57.020Z,101934.72
2023-02-18T08:20:27.330Z,101942.51
2023-02-18T08:22:58.069Z,101948.13
2023-02-18T08:25:29.724Z,101945.14
2023-02-18T08:27:58.843Z,101937.98
2023-02-18T08:30:29.086Z,101937.61
2023-02-18T08:32:59.399Z,101931.31
2023-02-18T08:35:28.670Z,101952.73
2023-02-18T08:37:58.695Z,101945.96
2023-02-18T08:40:28.082Z,101944.95
2023-02-18T08:42:57.329Z,101946.05
2023-02-18T08:45:27.187Z,101945.77
2023-02-18T08:48:19.375Z,101936.87
2023-02-18T08:50:29.038Z,101936.47
2023-02-18T08:53:00.038Z,101944.56
2023-02-18T08:55:30.146Z,101944.92
2023-02-18T08:57:59.633Z,101940.79
2023-02-18T09:00:28.871Z,101943.61
2023-02-18T09:02:58.102Z,101945.09
2023-02-18T09:05:27.429Z,101954.49
2023-02-18T09:07:56.796Z,101947.72
2023-02-18T09:10:26.476Z,101976.65
2023-02-18T09:12:55.715Z,101961.63
2023-02-18T09:15:25.025Z,101963.14
2023-02-18T09:17:54.794Z,101967.08
2023-02-18T09:20:24.072Z,101988.95
2023-02-18T09:22:53.308Z,101973.92
2023-02-18T09:25:22.646Z,101957.98
2023-02-18T09:27:52.314Z,101964.06
2023-02-18T09:30:21.676Z,101967.16
2023-02-18T09:32:51.104Z,101967.27
2023-02-18T09:35:21.986Z,101965.58
2023-02-18T09:37:51.502Z,101974.86
2023-02-18T09:40:29.965Z,101971.58
2023-02-18T09:43:00.465Z,101980.02
2023-02-18T09:45:30.796Z,101978.71
2023-02-18T09:48:00.093Z,101981.14
2023-02-18T09:50:31.623Z,101984.14
2023-02-18T09:53:02.054Z,101989.20
2023-02-18T09:55:39.523Z,101990.35
2023-02-18T09:58:22.464Z,101983.78
2023-02-18T10:00:54.277Z,101993.34
2023-02-18T10:03:25.379Z,101983.58
2023-02-18T10:06:12.089Z,101988.28
2023-02-18T10:08:47.773Z,101979.15
2023-02-18T10:11:23.171Z,101987.67
2023-02-18T10:13:53.806Z,101986.55
2023-02-18T10:16:25.503Z,101985.44
2023-02-18T10:18:59.463Z,101998.30
2023-02-18T10:21:33.280Z,102001.29
2023-02-18T10:24:08.687Z,101996.32
2023-02-18T10:26:39.297Z,102000.07
2023-02-18T10:29:20.924Z,102012.84
2023-02-18T10:32:15.903Z,102013.86
2023-02-18T10:34:50.392Z,102015.73
2023-02-18T10:37:31.585Z,102011.28
2023-02-18T10:40:19.143Z,102009.01
2023-02-18T10:42:52.249Z,101991.12
2023-02-18T10:45:27.508Z,102027.75
2023-02-18T10:48:18.834Z,102014.17
2023-02-18T10:50:47.995Z,102015.38
2023-02-18T10:53:32.281Z,102023.92
2023-02-18T10:56:01.973Z,102011.68
2023-02-18T10:58:40.451Z,102025.97
2023-02-18T11:01:15.063Z,102034.98
2023-02-18T11:03:49.612Z,102044.95
2023-02-18T11:06:27.956Z,102044.20
2023-02-18T11:08:58.785Z,102040.45
2023-02-18T11:11:34.095Z,102039.99
2023-02-18T11:14:04.785Z,102033.41
2023-02-18T11:16:45.247Z,102037.91
2023-02-18T11:19:34.425Z,102049.86
2023-02-18T11:22:23.347Z,102032.94
2023-02-18T11:24:59.957Z,102039.43
2023-02-18T11:27:35.819Z,102041.96
2023-02-18T11:30:08.217Z,102041.36
2023-02-18T11:32:38.462Z,102030.73
2023-02-18T11:35:41.006Z,102024.55
2023-02-18T11:38:14.262Z,102011.59
2023-02-18T11:40:43.982Z,102028.69
2023-02-18T11:43:15.738Z,102027.13
2023-02-18T11:45:45.842Z,102022.34
2023-02-18T11:48:20.645Z,102028.02
2023-02-18T11:50:51.804Z,102025.80
2023-02-18T11:53:36.187Z,102032.40
2023-02-18T11:56:09.171Z,102028.44
2023-02-18T11:58:40.913Z,102036.00
2023-02-18T12:01:31.943Z,102030.91
2023-02-18T12:04:04.361Z,102038.63
2023-02-18T12:06:39.864Z,102028.83
2023-02-18T12:09:30.218Z,102033.93
2023-02-18T12:12:08.623Z,102006.24
2023-02-18T12:14:38.040Z,102024.88
2023-02-18T12:17:27.041Z,102023.56
2023-02-18T12:20:28.739Z,102011.48
2023-02-18T12:23:18.083Z,102024.23
2023-02-18T12:25:59.380Z,102011.98
2023-02-18T12:29:05.259Z,102014.41
2023-02-18T12:31:41.239Z,102014.50
2023-02-18T12:34:31.078Z,102007.42
2023-02-18T12:37:12.796Z,102012.66
2023-02-18T12:39:45.456Z,102001.97
2023-02-18T12:42:37.362Z,102001.22
2023-02-18T12:45:34.359Z,102015.33
2023-02-18T12:48:10.929Z,101997.88
2023-02-18T12:50:43.303Z,102005.86
2023-02-18T12:53:31.228Z,102007.84
2023-02-18T12:56:38.368Z,102015.05
2023-02-18T12:59:10.809Z,102004.57
2023-02-18T13:01:55.214Z,102011.98
2023-02-18T13:04:50.638Z,102019.88
2023-02-18T13:07:42.093Z,102005.34
2023-02-18T13:10:30.105Z,101992.82
2023-02-18T13:13:05.220Z,101994.97
2023-02-18T13:15:45.434Z,102001.70
2023-02-18T13:18:18.060Z,102013.07
2023-02-18T13:20:51.569Z,101995.53
2023-02-18T13:23:24.471Z,101998.97
2023-02-18T13:26:00.979Z,102003.52
2023-02-18T13:28:54.108Z,101990.58
2023-02-18T13:31:38.629Z,102003.25
2023-02-18T13:34:29.685Z,102011.81
2023-02-18T13:37:18.682Z,101996.13
2023-02-18T13:39:53.258Z,101998.84
2023-02-18T13:42:34.898Z,102006.48
2023-02-18T13:45:06.956Z,102005.82
2023-02-18T13:47:44.508Z,102012.27
2023-02-18T13:50:31.534Z,102007.34
2023-02-18T13:53:11.973Z,102005.22
2023-02-18T13:55:44.739Z,102015.64
2023-02-18T13:58:19.976Z,102005.34
2023-02-18T14:00:55.926Z,102015.70
2023-02-18T14:03:46.514Z,102019.73
2023-02-18T14:06:22.759Z,102013.36
2023-02-18T14:08:52.562Z,102021.52
2023-02-18T14:11:26.421Z,102024.33
2023-02-18T14:13:59.524Z,102013.39
2023-02-18T14:16:32.165Z,102022.95
2023-02-18T14:19:01.409Z,102010.09
2023-02-18T14:21:39.150Z,102019.44
2023-02-18T14:24:10.702Z,102013.89
2023-02-18T14:26:48.353Z,102018.94
2023-02-18T14:29:20.748Z,102019.82
2023-02-18T14:31:53.482Z,102026.06
2023-02-18T14:34:45.646Z,102022.59
2023-02-18T14:37:23.820Z,102016.91
2023-02-18T14:40:06.470Z,102034.80
2023-02-18T14:42:48.589Z,102032.41
2023-02-18T14:45:31.195Z,102026.93
2023-02-18T14:48:25.049Z,102026.16
2023-02-18T14:50:56.168Z,102026.13
2023-02-18T14:53:27.132Z,102015.50
2023-02-18T14:56:02.783Z,102017.85
2023-02-18T14:58:35.577Z,102015.21
2023-02-18T15:01:10.930Z,102025.44
2023-02-18T15:03:41.970Z,102016.78
2023-02-18T15:06:25.756Z,102016.45
2023-02-18T15:08:55.765Z,102016.16
2023-02-18T15:11:28.132Z,102018.53
2023-02-18T15:13:57.745Z,102014.79
2023-02-18T15:16:30.276Z,102019.34
2023-02-18T15:19:01.712Z,102028.03
2023-02-18T15:21:43.218Z,102017.67
2023-02-18T15:24:34.414Z,102005.80
2023-02-18T15:27:06.556Z,102002.84
2023-02-18T15:29:37.232Z,102008.20
2023-02-18T15:32:19.592Z,102009.45
2023-02-18T15:34:51.502Z,102030.83
2023-02-18T15:37:21.714Z,102009.55
2023-02-18T15:39:51.519Z,102011.94
2023-02-18T15:42:38.036Z,102004.14
2023-02-18T15:45:24.649Z,101999.55
2023-02-18T15:47:58.527Z,102012.13
2023-02-18T15:50:39.089Z,102006.85
2023-02-18T15:53:11.032Z,102004.96
2023-02-18T15:55:43.160Z,102006.59
2023-02-18T15:58:17.796Z,102008.63
2023-02-18T16:00:58.332Z,102004.78
2023-02-18T16:03:42.962Z,102004.31
2023-02-18T16:06:15.865Z,102001.43
2023-02-18T16:09:03.412Z,101998.90
2023-02-18T16:11:39.215Z,102002.11
2023-02-18T16:14:10.219Z,102013.97
2023-02-18T16:16:40.746Z,102010.69
2023-02-18T16:19:13.273Z,102006.95
2023-02-18T16:21:47.232Z,101998.69
2023-02-18T16:24:32.381Z,102000.82
2023-02-18T16:27:03.592Z,102008.16
2023-02-18T16:29:38.741Z,102004.77
2023-02-18T16:32:09.028Z,101996.15
2023-02-18T16:34:39.074Z,101996.36
2023-02-18T16:37:28.363Z,102009.80
2023-02-18T16:39:57.788Z,102002.30
2023-02-18T16:42:27.316Z,102001.55
2023-02-18T16:44:56.616Z,102006.22
2023-02-18T16:47:26.154Z,101996.91
2023-02-18T16:49:56.758Z,102003.50
2023-02-18T16:52:26.708Z,101998.98
2023-02-18T16:54:56.083Z,102007.03
2023-02-18T16:57:25.868Z,102003.94
2023-02-18T16:59:55.461Z,101996.70
2023-02-18T17:02:25.086Z,102001.87
2023-02-18T17:04:56.596Z,101997.27
2023-02-18T17:07:26.147Z,101990.69
2023-02-18T17:09:55.368Z,101984.69
2023-02-18T17:12:25.390Z,101990.99
2023-02-18T17:14:54.793Z,101989.57
2023-02-18T17:17:24.444Z,101987.23
2023-02-18T17:19:53.810Z,101979.89
2023-02-18T17:22:23.313Z,101982.42
2023-02-18T17:24:52.547Z,101977.80
2023-02-18T17:27:21.902Z,101980.78
2023-02-18T17:29:51.134Z,101975.83
2023-02-18T17:32:21.018Z,101988.55
2023-02-18T17:34:50.396Z,101991.83
2023-02-18T17:37:20.010Z,101980.58
2023-02-18T17:39:49.596Z,101986.13
2023-02-18T17:42:19.150Z,101989.70
2023-02-18T17:44:48.648Z,101981.28
2023-02-18T17:47:18.246Z,101981.64
2023-02-18T17:49:47.523Z,101988.80
2023-02-18T17:52:23.044Z,101990.69
2023-02-18T17:54:52.295Z,101994.06
2023-02-18T17:57:21.568Z,102001.97
2023-02-18T17:59:50.825Z,101990.97
2023-02-18T18:02:26.457Z,101995.23
2023-02-18T18:04:56.126Z,101997.48
2023-02-18T18:07:25.645Z,101999.86
2023-02-18T18:09:54.852Z,102004.66
2023-02-18T18:12:24.660Z,102005.34
2023-02-18T18:14:54.045Z,102004.27
2023-02-18T18:17:23.452Z,102000.42
2023-02-18T18:19:53.173Z,101998.85
2023-02-18T18:22:22.752Z,102000.38
2023-02-18T18:24:52.103Z,101991.26
2023-02-18T18:27:21.704Z,101999.41
2023-02-18T18:29:51.101Z,101997.38
2023-02-18T18:32:21.991Z,101994.64
2023-02-18T18:34:51.433Z,101995.11
2023-02-18T18:37:20.651Z,101996.27
2023-02-18T18:39:49.917Z,101997.69
2023-02-18T18:42:19.131Z,101996.63
2023-02-18T18:44:48.370Z,101988.72
2023-02-18T18:47:17.826Z,101995.20
2023-02-18T18:49:48.095Z,101997.59
2023-02-18T18:52:18.169Z,101989.69
2023-02-18T18:54:47.423Z,101989.08
2023-02-18T18:57:16.956Z,101995.77
2023-02-18T18:59:46.329Z,101993.63
2023-02-18T19:02:19.719Z,101998.51
2023-02-18T19:04:49.152Z,102005.09
2023-02-18T19:07:18.668Z,102008.04
2023-02-18T19:09:48.172Z,102006.72
2023-02-18T19:12:17.687Z,101998.92
2023-02-18T19:14:46.935Z,101998.56
2023-02-18T19:17:16.328Z,101998.92
2023-02-18T19:19:45.573Z,101997.45
2023-02-18T19:22:14.870Z,101986.42
2023-02-18T19:24:44.125Z,101972.89
2023-02-18T19:27:14.498Z,101966.52
2023-02-18T19:29:43.751Z,101962.20
2023-02-18T19:32:13.433Z,101968.50
2023-02-18T19:34:42.936Z,101972.73
2023-02-18T19:37:12.639Z,101966.25
2023-02-18T19:39:42.178Z,101963.62
2023-02-18T19:42:11.983Z,101960.59
2023-02-18T19:44:41.306Z,101962.88
2023-02-18T19:47:10.862Z,101960.98
2023-02-18T19:49:40.145Z,101958.15
2023-02-18T19:52:09.384Z,101953.09
2023-02-18T19:54:38.657Z,101960.13
2023-02-18T19:57:07.926Z,101958.36
2023-02-18T19:59:37.604Z,101960.78
2023-02-18T20:02:07.732Z,101968.78
2023-02-18T20:04:37.227Z,101953.19
2023-02-18T20:07:06.598Z,101959.92
2023-02-18T20:09:35.911Z,101944.69
2023-02-18T20:12:06.261Z,101942.76
2023-02-18T20:14:36.100Z,101940.23
2023-02-18T20:17:06.981Z,101927.06
2023-02-18T20:19:36.815Z,101925.25
2023-02-18T20:22:07.630Z,101914.72
2023-02-18T20:24:39.630Z,101908.53
2023-02-18T20:27:10.028Z,101911.73
2023-02-18T20:29:39.469Z,101910.20
2023-02-18T20:32:09.877Z,101908.03
2023-02-18T20:34:39.545Z,101909.45
2023-02-18T20:37:08.904Z,101909.95
2023-02-18T20:39:38.443Z,101916.33
2023-02-18T20:42:15.736Z,101914.52
2023-02-18T20:44:38.992Z,101914.52
2023-02-18T20:47:08.253Z,101918.31
2023-02-18T20:49:38.437Z,101914.79
2023-02-18T20:52:08.304Z,101917.52
2023-02-18T20:54:38.560Z,101916.70
2023-02-18T20:57:09.134Z,101928.75
2023-02-18T20:59:38.370Z,101933.94
2023-02-18T21:02:07.814Z,101913.34
2023-02-18T21:04:37.215Z,101906.34
2023-02-18T21:07:06.575Z,101906.39
2023-02-18T21:09:35.867Z,101900.77
2023-02-18T21:12:07.095Z,101905.64
2023-02-18T21:14:36.668Z,101909.03
2023-02-18T21:17:08.446Z,101908.77
2023-02-18T21:19:37.748Z,101903.97
2023-02-18T21:22:07.025Z,101909.80
2023-02-18T21:24:36.541Z,101906.23
2023-02-18T21:27:06.049Z,101917.33
2023-02-18T21:29:35.687Z,101899.86
2023-02-18T21:32:05.225Z,101889.80
2023-02-18T21:34:34.583Z,101895.83
2023-02-18T21:37:03.993Z,101892.99
2023-02-18T21:39:33.351Z,101868.59
2023-02-18T21:42:04.395Z,101872.79
2023-02-18T21:44:42.244Z,101887.71
2023-02-18T21:47:04.855Z,101887.81
2023-02-18T21:49:34.368Z,101870.91
2023-02-18T21:52:05.346Z,101874.37
2023-02-18T21:54:39.048Z,101879.62
2023-02-18T21:57:17.037Z,101894.00
2023-02-18T21:59:46.527Z,101896.63
2023-02-18T22:02:24.693Z,101893.28
2023-02-18T22:04:54.156Z,101902.50
2023-02-18T22:07:25.968Z,101897.80
2023-02-18T22:09:55.236Z,101900.06
2023-02-18T22:12:26.309Z,101905.89
2023-02-18T22:14:55.587Z,101897.64
2023-02-18T22:17:24.913Z,101901.74
2023-02-18T22:19:54.227Z,101915.75
2023-02-18T22:22:23.544Z,101915.27
2023-02-18T22:24:53.180Z,101910.95
2023-02-18T22:27:22.594Z,101910.95
2023-02-18T22:29:51.841Z,101896.48
2023-02-18T22:32:21.562Z,101906.44
2023-02-18T22:34:51.023Z,101897.69
2023-02-18T22:37:20.240Z,101902.30
2023-02-18T22:39:50.610Z,101896.48
2023-02-18T22:42:19.829Z,101905.28
2023-02-18T22:44:49.149Z,101890.45
2023-02-18T22:47:18.589Z,101890.65
2023-02-18T22:49:48.225Z,101897.23
2023-02-18T22:52:17.588Z,101894.31
2023-02-18T22:54:47.037Z,101891.78
2023-02-18T22:57:16.305Z,101887.31
2023-02-18T22:59:45.774Z,101888.34
2023-02-18T23:02:15.210Z,101897.39
2023-02-18T23:04:44.738Z,101896.38
2023-02-18T23:07:14.712Z,101890.56
2023-02-18T23:09:44.454Z,101891.22
2023-02-18T23:12:14.206Z,101890.95
2023-02-18T23:14:43.964Z,101886.36
2023-02-18T23:17:13.429Z,101891.16
2023-02-18T23:19:50.559Z,101889.19
2023-02-18T23:22:37.894Z,101882.70
2023-02-18T23:25:07.759Z,101881.86
2023-02-18T23:27:37.010Z,101890.80
2023-02-18T23:30:06.954Z,101884.58
2023-02-18T23:32:38.293Z,101878.30
2023-02-18T23:35:07.539Z,101884.13
2023-02-18T23:37:54.461Z,101884.48
2023-02-18T23:40:23.758Z,101879.33
2023-02-18T23:42:56.951Z,101889.32
2023-02-18T23:45:26.410Z,101884.63
2023-02-18T23:47:55.706Z,101888.10
2023-02-18T23:50:25.184Z,101890.08
2023-02-18T23:52:54.645Z,101883.30
2023-02-18T23:55:24.101Z,101886.39
2023-02-18T23:57:53.402Z,101888.66
